Pagrindinis puslapis
METAR-TAF:

METAR-TAF

Oro uostai :

Yanbu, Saudo Arabija

platuma: 24-09N, ilguma: 038-04E, Aukštis: 8 m

Dabartinis oras

Ataskaita buvo paskelbta 58 minutes, ne 20:00 UTC
Vėjas 11 kt iš Vakarų
Temperatūra 33°C
Drėgmė 28%
Slėgis 1004 hPa
Matomumas 10 km arba daugiau
nėra debesų žemiau 1500 m ir nėra kamuolinių lietaus debesų

METAR: OEYN 172000Z 28011KT CAVOK 33/12 Q1004 NOSIG

Laikas: 23:58 (20:58 UTC)

Prognozė

Ataskaita buvo paskelbta 9 valandos ir 58 minutes, ne 11:00 UTC
Prognozė galioja nuo 17 metu 12 UTC su 18 metu 18 UTC
Vėjas 25 kt iš Vakarų/Šiaurės Vakarų
Matomumas: 7000 m
Laikinai
nuo 17 metu 12 UTC su 17 metu 16 UTC
Matomumas: 4000 m
Dulkes pustymas
Tapsmas
nuo 17 metu 18 UTC su 17 metu 20 UTC
Vėjas 10 kt iš Vakarų/Šiaurės Vakarų
Tapsmas
nuo 18 metu 09 UTC su 18 metu 11 UTC
Vėjas 20 kt iš Vakarų

TAF: OEYN 171100Z 1712/1818 29025KT 7000 NSC TEMPO 1712/1716 4000 BLDU BECMG 1718/1720 29010KT BECMG 1809/1811 27020KT

Orai ataskaitas ir orų prognozės (METAR, TAF).

turimą stotys yra geltonos ir raudonos taškus žemėlapyje.

Perkelti pele per norėdami pamatyti stoties vardą.

Tada spustelėkite, norėdami matyti oro stebėjimo ir prognozės.

Norėdami pakeisti žemėlapį: spustelėkite ant žalios mygtukų su juodo kryžiaus žemyn,; žalią mygtuką su brūkšneliu, jei norite nutolinti; arba žalių rodyklių gretimoms žemėlapius.


METAR-TAF: